Time;durP1;ratioP1;P1;durP2;ratioP2;P2;SDS_P1;SDS_P2;PMS_P1;PMS_P2;Temp;Humidity;BMP_temperature;BMP_pressure;BME280_temperature;BME280_humidity;BME280_pressure;Samples;Min_cycle;Max_cycle;Signal;HPM_P1;HPM_P2
2022/04/21 06:13:33;;;;;;;8.65;7.13;;;12.90;72.90;;;;;;4925169;23;20517;-83
2022/04/21 06:15:59;;;;;;;9.05;6.68;;;12.80;72.80;;;;;;4954103;28;20036;-83
2022/04/21 06:18:25;;;;;;;6.78;6.18;;;12.80;73.20;;;;;;4945417;28;20048;-83
2022/04/21 06:20:52;;;;;;;15.43;9.75;;;12.90;72.60;;;;;;4950542;28;20031;-81
2022/04/21 06:23:19;;;;;;;8.70;7.70;;;12.90;73.20;;;;;;4950218;28;20042;-86
2022/04/21 06:25:45;;;;;;;10.00;7.75;;;12.70;73.90;;;;;;4951064;29;20040;-82
2022/04/21 06:28:12;;;;;;;7.43;6.63;;;12.80;74.30;;;;;;4952199;29;20058;-82
2022/04/21 06:30:37;;;;;;;7.47;6.40;;;12.80;74.00;;;;;;4956806;29;20451;-82
2022/04/21 06:33:03;;;;;;;7.70;6.00;;;12.90;73.40;;;;;;4957541;29;20027;-82
2022/04/21 06:35:30;;;;;;;10.90;7.82;;;13.00;73.50;;;;;;4957598;29;20047;-82
2022/04/21 06:37:56;;;;;;;11.85;9.07;;;13.00;74.00;;;;;;4956204;29;20063;-82
2022/04/21 06:40:22;;;;;;;17.65;9.60;;;13.10;73.90;;;;;;4956415;29;20051;-81
2022/04/21 06:42:48;;;;;;;7.43;6.28;;;12.90;74.70;;;;;;4952103;29;20090;-83
2022/04/21 06:48:02;;;;;;;10.85;7.28;;;13.10;73.70;;;;;;4957298;28;20050;-81
2022/04/21 06:50:33;;;;;;;9.70;7.03;;;13.20;74.30;;;;;;4954172;29;20046;-82
2022/04/21 06:53:01;;;;;;;7.18;6.05;;;13.20;74.60;;;;;;4956569;28;20039;-83
2022/04/21 06:55:27;;;;;;;7.20;5.82;;;13.30;74.60;;;;;;4954438;28;20050;-82
2022/04/21 06:57:53;;;;;;;11.32;7.90;;;13.40;73.70;;;;;;4938152;29;20043;-82
2022/04/21 07:00:18;;;;;;;10.27;7.80;;;13.50;73.90;;;;;;4935797;29;20608;-82
2022/04/21 07:02:45;;;;;;;18.98;10.00;;;13.50;74.30;;;;;;4920253;29;20116;-82
2022/04/21 07:05:14;;;;;;;8.02;6.82;;;13.60;74.10;;;;;;4948965;29;20126;-81
2022/04/21 07:07:41;;;;;;;6.20;5.60;;;13.50;74.50;;;;;;4956294;28;20126;-82
2022/04/21 07:10:07;;;;;;;6.25;5.63;;;13.60;73.90;;;;;;4956467;28;20572;-82
2022/04/21 07:12:34;;;;;;;8.07;6.20;;;13.70;73.60;;;;;;4938993;29;20028;-83
2022/04/21 07:15:02;;;;;;;14.00;8.60;;;13.80;73.30;;;;;;4954815;28;20122;-83
2022/04/21 07:17:28;;;;;;;10.45;8.30;;;13.90;73.70;;;;;;4941933;29;20043;-83
2022/04/21 07:20:00;;;;;;;9.80;7.63;;;13.90;74.40;;;;;;4964246;29;20039;-84
2022/04/21 07:22:33;;;;;;;8.38;6.28;;;13.90;74.00;;;;;;4969859;29;20035;-81
2022/04/21 07:25:02;;;;;;;8.68;6.68;;;13.90;73.40;;;;;;4957206;29;20035;-82
2022/04/21 07:27:28;;;;;;;7.30;5.75;;;14.10;73.10;;;;;;4955547;29;20555;-81
2022/04/21 07:29:54;;;;;;;10.82;8.35;;;14.20;72.90;;;;;;4954798;29;20039;-82
2022/04/21 07:32:20;;;;;;;9.63;7.65;;;14.30;73.10;;;;;;4955562;29;20039;-84
2022/04/21 07:34:45;;;;;;;9.93;7.38;;;14.20;73.20;;;;;;4955517;28;20058;-81
2022/04/21 07:37:11;;;;;;;15.52;10.63;;;14.20;73.60;;;;;;4955818;28;20049;-82
2022/04/21 07:39:38;;;;;;;7.32;6.28;;;14.20;73.30;;;;;;4955098;29;20074;-82
2022/04/21 07:42:07;;;;;;;7.22;5.47;;;14.30;73.10;;;;;;4957614;28;20044;-81
2022/04/21 07:44:36;;;;;;;6.17;4.77;;;14.40;72.70;;;;;;4958086;28;20032;-81
2022/04/21 07:47:03;;;;;;;6.13;5.07;;;14.50;72.20;;;;;;4956421;28;20414;-82
2022/04/21 07:49:48;;;;;;;8.45;5.78;;;14.60;72.10;;;;;;4952287;29;20050;-81
2022/04/21 07:55:10;;;;;;;8.55;6.00;;;14.10;73.30;;;;;;4950219;29;20042;-80
2022/04/21 07:57:35;;;;;;;7.05;5.47;;;14.20;72.90;;;;;;4950095;29;20111;-84
2022/04/21 08:00:05;;;;;;;9.18;5.88;;;14.30;73.20;;;;;;4952258;29;20099;-83
2022/04/21 08:02:31;;;;;;;7.43;5.72;;;14.40;72.70;;;;;;4950053;28;20046;-85
2022/04/21 08:04:57;;;;;;;7.15;6.40;;;14.50;72.30;;;;;;4948594;28;20039;-83
2022/04/21 08:07:23;;;;;;;6.95;5.30;;;14.50;72.10;;;;;;4939308;28;20051;-84
2022/04/21 08:09:49;;;;;;;4.95;4.45;;;14.70;71.80;;;;;;4936509;29;20040;-84
2022/04/21 08:12:14;;;;;;;6.72;5.15;;;14.80;71.50;;;;;;4950801;29;20455;-84
2022/04/21 08:14:40;;;;;;;6.07;5.13;;;14.90;71.60;;;;;;4952553;29;20047;-84
2022/04/21 08:17:06;;;;;;;6.22;4.80;;;15.00;71.10;;;;;;4958795;29;20036;-85
2022/04/21 08:19:33;;;;;;;9.20;4.55;;;15.10;70.60;;;;;;4971734;29;20035;-85
2022/04/21 08:21:58;;;;;;;9.60;6.97;;;15.20;69.80;;;;;;4950249;29;20038;-85
2022/04/21 08:32:46;;;;;;;7.30;4.47;;;15.40;68.20;;;;;;4940057;29;20034;-84
2022/04/21 08:35:15;;;;;;;5.47;4.00;;;15.40;68.10;;;;;;4951921;29;20047;-84
2022/04/21 08:37:42;;;;;;;4.60;4.20;;;15.50;68.30;;;;;;4945847;29;20373;-84
2022/04/21 08:40:10;;;;;;;7.18;4.28;;;15.50;67.50;;;;;;4942946;28;20039;-84
2022/04/21 08:42:39;;;;;;;5.07;3.55;;;15.60;65.10;;;;;;4950931;28;20035;-79
2022/04/21 08:45:06;;;;;;;8.90;4.72;;;15.70;66.50;;;;;;4928900;28;20047;-79
2022/04/21 08:47:32;;;;;;;4.55;3.50;;;15.80;64.20;;;;;;4952917;28;20039;-79
2022/04/21 08:50:12;;;;;;;5.40;3.15;;;15.70;64.50;;;;;;4955478;29;20035;-84
2022/04/21 08:52:41;;;;;;;4.55;3.88;;;15.80;64.10;;;;;;4954877;28;20028;-83
2022/04/21 08:55:08;;;;;;;5.13;4.47;;;15.90;64.10;;;;;;4957442;28;20035;-78
2022/04/21 08:57:37;;;;;;;6.57;4.00;;;15.90;63.40;;;;;;4958395;28;20032;-78
2022/04/21 09:00:07;;;;;;;4.20;3.60;;;15.90;64.10;;;;;;4946470;29;20050;-78
2022/04/21 09:02:44;;;;;;;;;;;16.00;63.80;;;;;;4959240;29;20503;-78
2022/04/21 09:05:11;;;;;;;7.47;4.32;;;16.10;63.30;;;;;;4957311;29;19917;-78
2022/04/21 09:08:05;;;;;;;5.85;4.05;;;16.00;62.20;;;;;;4956137;29;20058;-78
2022/04/21 09:10:40;;;;;;;4.60;3.55;;;16.00;61.10;;;;;;4955462;28;20050;-78
2022/04/21 09:13:05;;;;;;;5.32;4.10;;;16.00;63.10;;;;;;4954216;28;20116;-78
2022/04/21 09:15:43;;;;;;;5.47;4.32;;;15.90;62.70;;;;;;4956283;29;20114;-78
2022/04/21 09:18:13;;;;;;;3.83;3.42;;;15.80;63.00;;;;;;4938757;29;20090;-78
2022/04/21 09:20:53;;;;;;;5.38;4.13;;;15.90;63.30;;;;;;4955501;29;20515;-76
2022/04/21 09:23:19;;;;;;;6.20;4.80;;;15.90;62.90;;;;;;4955278;28;20035;-78
2022/04/21 09:25:49;;;;;;;5.45;4.20;;;15.80;62.50;;;;;;4954868;29;20519;-78
2022/04/21 09:28:26;;;;;;;6.65;4.60;;;15.60;62.80;;;;;;4937848;29;20202;-79
2022/04/21 09:30:56;;;;;;;3.67;3.05;;;15.70;63.00;;;;;;4955188;28;20476;-79
2022/04/21 09:33:28;;;;;;;3.53;3.17;;;15.70;62.90;;;;;;4955166;28;20484;-77
2022/04/21 09:35:56;;;;;;;4.13;2.85;;;15.80;61.70;;;;;;4954941;29;20038;-77
2022/04/21 09:38:22;;;;;;;5.78;2.47;;;15.70;62.50;;;;;;4954210;29;20483;-78
2022/04/21 09:40:49;;;;;;;4.35;2.85;;;15.80;62.10;;;;;;4954037;29;20035;-77
2022/04/21 09:43:37;;;;;;;3.33;2.90;;;15.90;62.10;;;;;;4943911;28;20175;-78
2022/04/21 09:46:19;;;;;;;3.65;2.58;;;15.90;61.30;;;;;;4948798;28;20043;-78
2022/04/21 09:48:46;;;;;;;4.78;2.65;;;15.90;62.00;;;;;;4954064;29;20054;-78
2022/04/21 09:51:14;;;;;;;2.58;2.20;;;15.80;62.40;;;;;;4935039;28;20578;-78
2022/04/21 09:54:05;;;;;;;4.38;2.78;;;15.90;62.50;;;;;;4945541;28;20047;-78
2022/04/21 09:56:36;;;;;;;2.90;2.20;;;15.90;63.00;;;;;;4949133;28;20035;-78
2022/04/21 09:59:09;;;;;;;6.35;2.70;;;16.00;62.80;;;;;;4952959;28;20528;-78
2022/04/21 10:01:42;;;;;;;3.17;2.10;;;16.00;61.40;;;;;;4954020;28;20039;-78
2022/04/21 10:04:12;;;;;;;3.88;1.88;;;16.00;61.90;;;;;;4953108;28;20032;-78
2022/04/21 10:06:42;;;;;;;4.13;2.03;;;16.00;62.00;;;;;;4948787;28;20086;-78
2022/04/21 10:09:11;;;;;;;2.88;2.03;;;16.00;62.00;;;;;;4952595;29;20071;-79
2022/04/21 10:11:38;;;;;;;3.63;2.30;;;16.10;62.00;;;;;;4934612;29;20040;-78
2022/04/21 10:14:06;;;;;;;2.80;1.90;;;16.10;61.90;;;;;;4944508;29;20082;-78
2022/04/21 10:16:32;;;;;;;6.45;2.75;;;16.10;62.00;;;;;;4952988;28;20028;-80
2022/04/21 10:19:00;;;;;;;3.80;2.50;;;16.10;62.10;;;;;;4934609;29;20039;-79
2022/04/21 10:21:48;;;;;;;3.83;2.70;;;16.10;62.10;;;;;;4934310;29;20032;-76
2022/04/21 10:24:28;;;;;;;2.70;2.15;;;16.10;62.90;;;;;;4919448;29;20036;-78
2022/04/21 10:26:54;;;;;;;;;;;16.20;62.70;;;;;;4938468;29;20063;-77
2022/04/21 10:29:23;;;;;;;4.32;2.35;;;16.10;62.60;;;;;;4952241;29;20367;-78
2022/04/21 10:32:05;;;;;;;6.07;3.63;;;16.10;62.60;;;;;;4940319;29;20403;-78
2022/04/21 10:34:36;;;;;;;3.63;2.92;;;16.00;63.40;;;;;;4957647;29;20059;-78
2022/04/21 10:37:10;;;;;;;3.40;2.70;;;15.90;63.80;;;;;;4957394;29;20151;-77
2022/04/21 10:39:37;;;;;;;3.08;2.63;;;15.90;63.90;;;;;;4953125;29;20114;-78
2022/04/21 10:42:18;;;;;;;2.67;2.13;;;16.00;64.40;;;;;;4930881;29;20039;-78
2022/04/21 10:44:51;;;;;;;3.08;2.60;;;16.00;64.50;;;;;;4955456;28;20039;-78
2022/04/21 10:47:26;;;;;;;4.68;2.78;;;16.00;64.70;;;;;;4954472;29;20059;-82
2022/04/21 10:49:59;;;;;;;4.00;2.42;;;16.00;64.90;;;;;;4939896;29;20094;-82
2022/04/21 10:57:50;;;;;;;2.42;1.75;;;16.30;63.70;;;;;;4956830;28;20066;-82
2022/04/21 11:00:27;;;;;;;1.20;1.02;;;16.10;63.40;;;;;;4956826;29;20043;-82
2022/04/21 11:03:07;;;;;;;1.10;0.95;;;16.30;64.10;;;;;;4956593;29;20035;-82
2022/04/21 11:05:39;;;;;;;;;;;16.40;63.90;;;;;;4951580;28;20080;-82
2022/04/21 11:08:12;;;;;;;1.38;0.98;;;16.50;63.80;;;;;;4956275;28;19985;-84
2022/04/21 11:10:38;;;;;;;1.40;1.10;;;16.40;64.40;;;;;;4937927;29;20130;-87
2022/04/21 11:13:05;;;;;;;1.48;1.20;;;16.30;64.90;;;;;;4951862;29;20148;-88
2022/04/21 11:15:45;;;;;;;2.47;1.05;;;16.30;65.00;;;;;;4946483;29;20043;-87
2022/04/21 11:18:18;;;;;;;2.67;1.35;;;16.50;65.00;;;;;;4957438;28;20050;-87
2022/04/21 11:20:48;;;;;;;1.00;0.80;;;16.60;65.30;;;;;;4940672;29;20043;-88
2022/04/21 11:23:24;;;;;;;2.42;1.30;;;16.70;64.80;;;;;;4957847;29;20047;-87
2022/04/21 11:26:03;;;;;;;2.42;1.25;;;16.80;65.00;;;;;;4957653;29;20508;-88
2022/04/21 11:28:28;;;;;;;1.52;1.17;;;16.90;65.10;;;;;;4956645;28;20579;-88
2022/04/21 11:30:59;;;;;;;2.70;1.38;;;17.10;65.00;;;;;;4956789;28;20039;-87
2022/04/21 11:33:25;;;;;;;3.63;1.15;;;17.40;65.10;;;;;;4957884;29;20071;-87
2022/04/21 11:36:05;;;;;;;1.73;1.20;;;17.60;64.90;;;;;;4940066;29;20041;-88
2022/04/21 11:38:35;;;;;;;2.72;1.27;;;17.90;65.10;;;;;;4940040;29;20090;-87
2022/04/21 11:41:03;;;;;;;2.45;1.40;;;18.10;63.80;;;;;;4957718;29;20138;-86
2022/04/21 11:43:29;;;;;;;4.50;1.50;;;18.40;63.00;;;;;;4943569;29;20071;-86
2022/04/21 11:45:58;;;;;;;1.95;1.15;;;18.50;62.90;;;;;;4957450;28;20066;-87
2022/04/21 11:48:36;;;;;;;3.38;1.20;;;18.80;62.90;;;;;;4957904;28;20383;-82
2022/04/21 11:51:10;;;;;;;1.70;1.00;;;19.00;62.10;;;;;;4926673;29;20491;-82
2022/04/21 11:53:40;;;;;;;2.45;1.10;;;19.10;61.50;;;;;;4952493;28;20110;-81
2022/04/21 11:56:07;;;;;;;2.30;1.10;;;19.00;61.00;;;;;;4956055;28;20380;-82
2022/04/21 11:58:38;;;;;;;2.50;1.02;;;18.90;61.10;;;;;;4955946;28;20067;-82
2022/04/21 12:06:52;;;;;;;1.40;1.10;;;18.70;61.10;;;;;;4955884;28;20050;-82
2022/04/21 12:09:21;;;;;;;4.18;1.65;;;18.60;61.20;;;;;;4955708;28;20039;-82
2022/04/21 12:11:50;;;;;;;1.50;1.10;;;18.50;61.10;;;;;;4955043;28;20043;-82
2022/04/21 12:14:16;;;;;;;1.98;1.20;;;18.40;61.30;;;;;;4954703;28;20054;-83
2022/04/21 12:16:42;;;;;;;2.25;1.20;;;18.40;61.00;;;;;;4955695;28;20082;-83
2022/04/21 12:19:12;;;;;;;2.85;1.50;;;18.20;61.70;;;;;;4938464;29;20102;-83
2022/04/21 12:21:38;;;;;;;1.25;1.08;;;18.20;61.30;;;;;;4958096;28;20051;-87
2022/04/21 12:24:17;;;;;;;2.58;1.23;;;18.20;61.50;;;;;;4951264;28;20102;-88
2022/04/21 12:26:53;;;;;;;2.72;1.02;;;18.10;62.00;;;;;;4943221;28;20047;-86
2022/04/21 12:29:21;;;;;;;2.03;1.25;;;18.10;62.30;;;;;;4945521;28;20503;-87
2022/04/21 12:31:52;;;;;;;2.10;1.00;;;18.10;62.60;;;;;;4941443;28;20166;-87
2022/04/21 12:34:31;;;;;;;3.58;1.30;;;18.00;62.80;;;;;;4954886;28;20077;-88
2022/04/21 12:36:58;;;;;;;1.10;0.98;;;18.00;63.20;;;;;;4919782;29;20127;-86
2022/04/21 12:39:25;;;;;;;2.78;1.38;;;18.00;63.20;;;;;;4930976;29;20035;-87
2022/04/21 12:41:52;;;;;;;1.10;0.68;;;18.00;63.80;;;;;;4947284;28;20046;-87
2022/04/21 12:44:22;;;;;;;5.13;1.40;;;18.00;63.80;;;;;;4955393;28;20097;-87
2022/04/21 12:47:05;;;;;;;3.13;1.30;;;18.00;64.20;;;;;;4947548;28;20042;-87
2022/04/21 12:50:07;;;;;;;1.83;1.00;;;17.90;64.80;;;;;;4931175;29;20046;-87
2022/04/21 12:52:40;;;;;;;1.50;0.93;;;17.80;64.50;;;;;;4912133;28;20036;-86
2022/04/21 12:55:11;;;;;;;1.10;0.80;;;17.90;64.30;;;;;;4954635;28;20035;-86
2022/04/21 12:57:38;;;;;;;2.08;1.05;;;17.90;63.90;;;;;;4933924;28;20505;-86
2022/04/21 13:00:07;;;;;;;2.50;1.00;;;17.90;63.70;;;;;;4927665;28;20460;-86
2022/04/21 13:02:33;;;;;;;1.42;0.95;;;17.90;63.60;;;;;;4929764;29;20039;-87
2022/04/21 13:05:00;;;;;;;4.80;1.75;;;17.70;63.40;;;;;;4928048;29;20520;-88
2022/04/21 13:07:26;;;;;;;2.10;1.30;;;17.60;63.40;;;;;;4915795;29;20054;-86
2022/04/21 13:09:53;;;;;;;2.90;1.20;;;17.40;64.40;;;;;;4930802;29;20052;-87
2022/04/21 13:12:19;;;;;;;3.08;1.00;;;17.30;64.80;;;;;;4929060;29;20059;-88
2022/04/21 13:14:45;;;;;;;1.70;0.85;;;17.30;64.80;;;;;;4930181;29;20400;-85
2022/04/21 13:17:11;;;;;;;0.90;0.90;;;17.00;65.30;;;;;;4941314;29;20058;-84
2022/04/21 13:19:36;;;;;;;1.63;0.90;;;17.00;65.70;;;;;;4954921;29;20035;-86
2022/04/21 13:22:03;;;;;;;1.88;0.98;;;17.10;65.50;;;;;;4954229;28;20050;-85
2022/04/21 13:24:29;;;;;;;2.35;1.02;;;17.20;64.60;;;;;;4937695;29;20027;-86
2022/04/21 13:26:57;;;;;;;1.73;1.00;;;17.40;64.20;;;;;;4955096;29;20491;-86
2022/04/21 13:29:23;;;;;;;3.15;1.00;;;17.50;64.20;;;;;;4955418;29;20436;-86
2022/04/21 13:34:34;;;;;;;1.05;0.90;;;17.60;63.50;;;;;;4955194;29;20487;-86
2022/04/21 13:37:01;;;;;;;1.98;0.90;;;17.60;64.20;;;;;;4954623;29;20046;-86
2022/04/21 13:39:28;;;;;;;1.35;1.00;;;17.70;64.00;;;;;;4954986;28;20042;-85
2022/04/21 13:41:54;;;;;;;1.50;0.80;;;17.80;63.20;;;;;;4954476;29;20031;-84
2022/04/21 13:44:19;;;;;;;2.08;0.93;;;17.70;61.40;;;;;;4954942;28;20483;-85
2022/04/21 13:46:45;;;;;;;1.92;1.00;;;17.80;61.20;;;;;;4954847;28;20077;-86
2022/04/21 13:49:11;;;;;;;0.95;0.77;;;17.80;61.30;;;;;;4954896;29;20042;-86
2022/04/21 13:51:37;;;;;;;1.27;0.82;;;17.80;58.80;;;;;;4954947;28;20122;-85
2022/04/21 13:54:04;;;;;;;1.85;0.90;;;17.70;59.00;;;;;;4937440;29;20419;-86
2022/04/21 13:56:30;;;;;;;1.35;0.70;;;17.70;58.90;;;;;;4954290;29;20087;-86
2022/04/21 13:58:56;;;;;;;3.53;0.98;;;17.60;57.60;;;;;;4956255;28;20039;-86
2022/04/21 14:01:22;;;;;;;1.20;0.73;;;17.50;56.70;;;;;;4958780;29;20035;-86
2022/04/21 14:03:49;;;;;;;2.40;0.63;;;17.40;53.70;;;;;;4941121;29;20031;-87
2022/04/21 14:06:15;;;;;;;2.25;0.85;;;17.50;56.40;;;;;;4958308;29;20111;-87
2022/04/21 14:08:44;;;;;;;1.20;0.52;;;17.60;56.50;;;;;;4958210;28;20043;-87
2022/04/21 14:11:14;;;;;;;1.55;0.68;;;17.60;56.50;;;;;;4958046;29;20039;-86
2022/04/21 14:13:41;;;;;;;;;;;17.70;56.20;;;;;;4958792;29;20407;-86
2022/04/21 14:16:07;;;;;;;1.02;0.70;;;17.70;56.20;;;;;;4941072;29;19906;-87
2022/04/21 14:18:33;;;;;;;0.40;0.40;;;17.50;55.60;;;;;;4958331;29;20039;-87
2022/04/21 14:20:58;;;;;;;0.65;0.50;;;17.50;56.10;;;;;;4958654;29;20093;-87
2022/04/21 14:23:24;;;;;;;1.83;0.90;;;17.50;56.00;;;;;;4941384;29;20058;-87
2022/04/21 14:25:51;;;;;;;0.80;0.70;;;17.60;55.70;;;;;;4960555;29;20475;-86
2022/04/21 14:28:17;;;;;;;0.60;0.60;;;17.50;55.90;;;;;;4959108;29;20035;-86
2022/04/21 14:30:43;;;;;;;1.67;0.80;;;17.50;56.00;;;;;;4959143;29;20079;-86
2022/04/21 14:33:09;;;;;;;1.48;0.75;;;17.40;56.10;;;;;;4958778;29;20039;-86
2022/04/21 14:35:38;;;;;;;1.05;0.90;;;17.40;56.20;;;;;;4940905;29;20101;-87
2022/04/21 14:46:17;;;;;;;1.23;0.60;;;17.30;55.80;;;;;;4957921;28;20094;-87
2022/04/21 14:48:43;;;;;;;0.57;0.57;;;17.20;55.80;;;;;;4941065;29;20040;-87
2022/04/21 14:51:09;;;;;;;1.20;0.80;;;17.10;56.10;;;;;;4960846;29;20078;-87
2022/04/21 14:53:36;;;;;;;2.15;1.02;;;17.10;56.70;;;;;;4954658;29;20023;-87
2022/04/21 14:56:02;;;;;;;1.15;0.65;;;17.10;56.60;;;;;;4954380;29;20400;-88
2022/04/21 14:58:27;;;;;;;1.50;0.95;;;17.00;57.00;;;;;;4954055;28;20373;-85
2022/04/21 15:00:53;;;;;;;0.95;0.80;;;16.90;57.60;;;;;;4952668;28;20039;-84
2022/04/21 15:03:19;;;;;;;1.65;0.90;;;16.80;57.90;;;;;;4955047;28;20152;-85
2022/04/21 15:05:45;;;;;;;1.63;0.80;;;16.80;58.00;;;;;;4945886;28;20059;-85
2022/04/21 15:08:11;;;;;;;1.25;0.88;;;16.80;58.30;;;;;;4961409;28;20415;-85
2022/04/21 15:10:45;;;;;;;2.72;1.27;;;16.90;58.10;;;;;;4956185;28;20404;-86
2022/04/21 15:13:11;;;;;;;1.38;0.90;;;16.90;58.40;;;;;;4954824;28;20182;-86
2022/04/21 15:15:37;;;;;;;1.48;0.85;;;16.90;58.30;;;;;;4951993;28;20114;-86
2022/04/21 15:18:04;;;;;;;1.83;0.85;;;16.90;58.20;;;;;;4955310;28;20031;-85
2022/04/21 15:20:30;;;;;;;1.17;0.90;;;16.90;58.00;;;;;;4955497;29;20031;-86
2022/04/21 15:22:58;;;;;;;2.28;0.90;;;17.00;57.60;;;;;;4955669;28;20031;-85
2022/04/21 15:25:24;;;;;;;1.83;0.95;;;16.90;57.50;;;;;;4954175;28;20036;-86
2022/04/21 15:27:50;;;;;;;2.00;1.08;;;16.90;57.70;;;;;;4953671;29;20377;-86
2022/04/21 15:30:17;;;;;;;2.67;0.80;;;16.90;57.90;;;;;;4955573;28;20031;-86
2022/04/21 15:32:43;;;;;;;2.05;1.05;;;16.80;57.70;;;;;;4956051;28;20043;-85
2022/04/21 15:35:08;;;;;;;1.67;0.80;;;16.80;57.60;;;;;;4938030;29;20490;-85
2022/04/21 15:37:34;;;;;;;0.70;0.70;;;16.80;57.60;;;;;;4939981;29;20106;-87
2022/04/21 15:40:03;;;;;;;0.85;0.80;;;16.70;57.90;;;;;;4937649;29;20035;-85
2022/04/21 15:42:29;;;;;;;1.55;0.98;;;16.80;58.30;;;;;;4953909;28;20038;-85
2022/04/21 15:44:55;;;;;;;1.58;0.93;;;16.70;60.20;;;;;;4954989;28;20031;-85
2022/04/21 15:47:20;;;;;;;1.00;0.80;;;16.60;60.50;;;;;;4952185;29;20048;-85
2022/04/21 15:49:46;;;;;;;2.22;0.95;;;16.60;60.40;;;;;;4954485;28;20027;-85
2022/04/21 15:52:12;;;;;;;1.00;0.82;;;16.60;60.60;;;;;;4953500;29;20531;-86
2022/04/21 16:00:07;;;;;;;2.78;1.17;;;16.70;62.10;;;;;;4948681;29;20178;-85
2022/04/21 16:02:32;;;;;;;3.45;1.65;;;16.50;62.60;;;;;;4955706;28;20039;-85
2022/04/21 16:04:58;;;;;;;3.30;1.23;;;16.30;63.40;;;;;;4938499;29;20382;-85
2022/04/21 16:07:24;;;;;;;2.40;1.08;;;16.30;63.10;;;;;;4955793;29;20040;-85
2022/04/21 16:09:49;;;;;;;1.77;1.20;;;16.30;62.70;;;;;;4955818;29;20424;-85
2022/04/21 16:12:17;;;;;;;3.58;1.30;;;16.20;62.90;;;;;;4938460;29;20036;-85
2022/04/21 16:14:43;;;;;;;1.73;1.15;;;16.10;63.20;;;;;;4955624;29;20042;-85
2022/04/21 16:17:08;;;;;;;1.65;1.13;;;16.10;62.70;;;;;;4955604;29;20046;-85
2022/04/21 16:19:34;;;;;;;1.52;0.90;;;16.10;63.00;;;;;;4955985;29;20035;-85
2022/04/21 16:22:00;;;;;;;1.58;0.90;;;16.20;62.90;;;;;;4957082;28;20118;-85
2022/04/21 16:24:26;;;;;;;1.35;1.25;;;16.20;62.50;;;;;;4940760;29;20122;-85
2022/04/21 16:26:53;;;;;;;3.47;1.60;;;16.10;63.10;;;;;;4938831;29;20556;-86
2022/04/21 16:29:19;;;;;;;1.60;1.02;;;16.10;62.60;;;;;;4956586;29;20035;-84
2022/04/21 16:31:44;;;;;;;1.90;1.30;;;16.20;62.60;;;;;;4956098;29;20110;-84
2022/04/21 16:34:12;;;;;;;2.08;1.30;;;16.20;62.40;;;;;;4953835;28;20574;-84
2022/04/21 16:36:38;;;;;;;2.97;1.20;;;16.10;62.60;;;;;;4949616;28;20511;-84
2022/04/21 16:39:05;;;;;;;1.92;1.23;;;16.20;62.70;;;;;;4953655;29;20062;-83
2022/04/21 16:41:31;;;;;;;2.00;1.50;;;16.20;62.70;;;;;;4954324;29;20416;-84
2022/04/21 16:43:56;;;;;;;2.38;1.60;;;16.20;62.70;;;;;;4947247;28;20050;-83
2022/04/21 16:46:22;;;;;;;1.90;1.20;;;16.20;62.80;;;;;;4946531;29;20035;-85
2022/04/21 16:48:49;;;;;;;2.35;1.17;;;16.30;62.80;;;;;;4953406;28;20047;-85
2022/04/21 16:51:15;;;;;;;4.05;1.63;;;16.30;62.50;;;;;;4954139;28;20039;-85
2022/04/21 16:53:41;;;;;;;2.47;1.38;;;16.30;62.80;;;;;;4943644;28;20503;-85
2022/04/21 16:56:07;;;;;;;2.63;1.40;;;16.30;62.80;;;;;;4952670;28;20098;-84
2022/04/21 16:58:32;;;;;;;2.17;1.30;;;16.20;63.10;;;;;;4965889;28;20477;-85
2022/04/21 17:03:42;;;;;;;3.60;1.40;;;16.20;63.10;;;;;;4939733;28;20403;-84
2022/04/21 17:06:08;;;;;;;2.85;1.38;;;16.20;63.40;;;;;;4953071;28;20051;-83
2022/04/21 17:08:37;;;;;;;2.90;1.40;;;16.10;64.00;;;;;;4926329;29;20345;-84
2022/04/21 17:11:04;;;;;;;2.58;1.20;;;16.00;63.60;;;;;;4920164;29;20051;-84
2022/04/21 17:13:30;;;;;;;1.48;1.13;;;16.00;63.40;;;;;;4944346;28;20055;-84
2022/04/21 17:15:55;;;;;;;2.40;1.30;;;16.10;64.00;;;;;;4945099;29;20032;-84
2022/04/21 17:18:21;;;;;;;1.35;1.17;;;16.10;63.40;;;;;;4932143;29;20400;-84
2022/04/21 17:20:47;;;;;;;2.55;1.40;;;16.10;63.10;;;;;;4951736;28;20126;-82
2022/04/21 17:23:12;;;;;;;2.45;1.17;;;16.10;63.20;;;;;;4928280;29;20087;-83
2022/04/21 17:25:38;;;;;;;1.88;1.23;;;16.10;63.10;;;;;;4949597;28;20126;-83
2022/04/21 17:28:04;;;;;;;2.72;1.48;;;16.10;63.10;;;;;;4948376;29;20118;-83
2022/04/21 17:30:31;;;;;;;1.80;1.23;;;16.10;63.10;;;;;;4947240;29;20051;-83
2022/04/21 17:32:57;;;;;;;2.40;1.30;;;16.10;63.10;;;;;;4950814;28;20094;-84
2022/04/21 17:35:23;;;;;;;2.58;1.40;;;16.00;63.30;;;;;;4954726;28;20516;-84
2022/04/21 17:37:49;;;;;;;1.50;1.13;;;16.00;63.50;;;;;;4952729;28;20035;-82
2022/04/21 17:40:15;;;;;;;1.50;1.20;;;16.00;63.10;;;;;;4955897;28;20043;-82
2022/04/21 17:42:41;;;;;;;1.55;1.30;;;16.00;63.00;;;;;;4950689;28;20038;-82
2022/04/21 17:45:07;;;;;;;2.38;1.70;;;16.00;63.00;;;;;;4936737;29;20039;-83
2022/04/21 17:47:32;;;;;;;1.83;1.45;;;15.90;63.00;;;;;;4950130;28;20459;-82
2022/04/21 17:49:58;;;;;;;1.90;1.35;;;15.90;63.30;;;;;;4956693;28;20421;-84
2022/04/21 17:52:23;;;;;;;1.23;1.13;;;15.90;63.10;;;;;;4941878;29;20121;-83
2022/04/21 17:54:50;;;;;;;2.65;1.30;;;15.80;63.20;;;;;;4960042;29;20073;-82
2022/04/21 17:57:15;;;;;;;2.80;1.33;;;15.90;63.10;;;;;;4940103;29;20031;-83
2022/04/21 17:59:41;;;;;;;3.47;1.50;;;15.90;62.70;;;;;;4953400;28;20046;-82
2022/04/21 18:02:07;;;;;;;1.65;1.42;;;15.90;62.70;;;;;;4955326;28;20559;-82
2022/04/21 18:04:33;;;;;;;1.80;1.30;;;16.00;62.70;;;;;;4953807;28;20598;-83
2022/04/21 18:07:00;;;;;;;2.03;1.45;;;16.00;62.20;;;;;;4957511;29;20392;-83
2022/04/21 18:09:26;;;;;;;2.28;1.77;;;16.00;61.90;;;;;;4954890;28;20095;-81
2022/04/21 18:11:52;;;;;;;2.17;1.75;;;16.00;61.50;;;;;;4934950;29;20046;-83
2022/04/21 18:14:18;;;;;;;3.15;1.63;;;15.90;61.20;;;;;;4939346;29;20145;-83
2022/04/21 18:16:44;;;;;;;2.15;1.52;;;15.90;61.50;;;;;;4954285;28;20027;-82
2022/04/21 18:19:09;;;;;;;2.67;1.48;;;15.90;61.60;;;;;;4955143;28;20055;-82
2022/04/21 18:21:35;;;;;;;3.97;1.65;;;15.80;61.50;;;;;;4950364;28;20479;-83
2022/04/21 18:24:01;;;;;;;3.20;1.80;;;15.80;61.10;;;;;;4955380;28;20050;-77
2022/04/21 18:26:27;;;;;;;3.00;2.00;;;15.80;61.50;;;;;;4956503;28;20035;-76
2022/04/21 18:28:53;;;;;;;2.28;2.03;;;15.70;61.30;;;;;;4956111;29;20039;-77
2022/04/21 18:31:19;;;;;;;3.67;1.90;;;15.70;61.30;;;;;;4933336;28;20039;-78
2022/04/21 18:33:45;;;;;;;4.25;2.22;;;15.80;61.30;;;;;;4954266;29;20381;-77
2022/04/21 18:36:11;;;;;;;3.67;2.40;;;15.70;61.40;;;;;;4955796;29;20039;-78
2022/04/21 18:38:37;;;;;;;2.97;2.22;;;15.70;61.30;;;;;;4956465;29;20515;-77
2022/04/21 18:41:04;;;;;;;4.35;2.42;;;15.70;61.10;;;;;;4955073;28;20118;-78
2022/04/21 18:43:30;;;;;;;4.65;2.60;;;15.70;61.40;;;;;;4953918;28;20400;-77
2022/04/21 18:45:57;;;;;;;4.55;2.58;;;15.80;61.50;;;;;;4953021;28;20114;-78
2022/04/21 18:48:22;;;;;;;8.00;3.35;;;15.70;61.30;;;;;;4957836;28;20043;-77
2022/04/21 18:50:48;;;;;;;5.28;3.05;;;15.70;61.20;;;;;;4954714;28;20037;-77
2022/04/21 18:53:14;;;;;;;8.63;3.15;;;15.70;61.40;;;;;;4953482;28;20054;-76
2022/04/21 18:55:40;;;;;;;5.13;2.80;;;15.70;62.00;;;;;;4947716;29;20031;-77
2022/04/21 18:58:24;;;;;;;4.82;3.33;;;15.60;61.80;;;;;;4949899;29;20043;-77
2022/04/21 19:01:00;;;;;;;7.35;4.93;;;15.70;62.00;;;;;;4930920;29;20062;-76
2022/04/21 19:03:26;;;;;;;59.03;33.70;;;15.70;62.00;;;;;;4950388;28;20161;-77
2022/04/21 19:05:53;;;;;;;30.90;19.98;;;15.70;62.10;;;;;;4951814;28;20043;-77
2022/04/21 19:11:06;;;;;;;9.52;5.80;;;15.70;62.20;;;;;;4946366;28;20102;-77
2022/04/21 19:13:33;;;;;;;6.70;4.93;;;15.60;62.30;;;;;;4951062;29;20085;-77
2022/04/21 19:15:59;;;;;;;5.68;4.20;;;15.60;62.30;;;;;;4948342;28;20035;-75
2022/04/21 19:18:27;;;;;;;9.73;4.93;;;15.70;62.50;;;;;;4932233;29;20042;-76
2022/04/21 19:20:53;;;;;;;6.18;4.70;;;15.60;62.50;;;;;;4948031;28;20043;-75
2022/04/21 19:23:21;;;;;;;5.45;4.07;;;15.40;62.30;;;;;;4949218;29;20051;-77
2022/04/21 19:25:48;;;;;;;7.53;4.28;;;15.50;62.40;;;;;;4951779;29;20488;-76
2022/04/21 19:28:18;;;;;;;5.47;4.32;;;15.40;62.30;;;;;;4944703;29;20051;-76
2022/04/21 19:30:44;;;;;;;4.35;3.80;;;15.50;62.50;;;;;;4950463;28;20380;-77
2022/04/21 19:33:09;;;;;;;9.18;4.53;;;15.50;62.40;;;;;;4946942;28;20039;-76
2022/04/21 19:35:35;;;;;;;6.20;3.53;;;15.40;61.60;;;;;;4949972;28;20130;-76
2022/04/21 19:38:01;;;;;;;5.70;3.92;;;15.40;61.80;;;;;;4950886;29;20587;-76
2022/04/21 19:40:27;;;;;;;6.65;3.70;;;15.50;61.70;;;;;;4941715;29;20113;-76
2022/04/21 19:42:52;;;;;;;6.75;3.60;;;15.50;61.40;;;;;;4945518;29;20399;-75
2022/04/21 19:45:18;;;;;;;5.50;3.80;;;15.50;60.50;;;;;;4948396;28;20094;-76
2022/04/21 19:47:44;;;;;;;3.80;3.20;;;15.50;60.70;;;;;;4943951;28;20039;-76
2022/04/21 19:50:12;;;;;;;5.35;3.53;;;15.60;60.70;;;;;;4948221;29;20594;-75
2022/04/21 19:52:38;;;;;;;5.43;3.30;;;15.60;60.30;;;;;;4946780;28;20729;-75